This is the latest recevied weather packets stored in our database for station/object N7ZAP. If no packets are shown the sender has not sent any weather packets the latest 1 day(s).
| Time | Temp. | Humidity | Pressure | Rain* | Wind** | Luminosity | Snow |
|---|---|---|---|---|---|---|---|
| 1778074988 | 10° C | 48% | 1016.7 hPa | 0 mm | - | - | - |
| 1778073474 | 8.33° C | 58% | 1016.7 hPa | 0 mm | - | - | - |
| 1778073169 | 8.33° C | 59% | 1016.5 hPa | 0 mm | - | - | - |
| 1778071959 | 7.78° C | 63% | 1016.3 hPa | 0 mm | - | - | - |
| 1778070144 | 5.56° C | 75% | 1015.9 hPa | 0 mm | - | - | - |
| 1778069842 | 6.11° C | 75% | 1016 hPa | 0 mm | - | - | - |
| 1778069236 | 6.11° C | 74% | 1016.1 hPa | 0 mm | - | - | - |
| 1778067724 | 6.67° C | 68% | 1015.8 hPa | 0 mm | - | - | - |
| 1778065303 | 6.11° C | 73% | 1015.6 hPa | 0 mm | - | - | - |
| 1778064999 | 6.11° C | 73% | 1015.4 hPa | 0 mm | - | - | - |
| 1778064696 | 6.11° C | 74% | 1015.3 hPa | 0 mm | - | - | - |
| 1778064092 | 6.67° C | 70% | 1015.1 hPa | 0 mm | - | - | - |
| 1778063789 | 6.67° C | 71% | 1014.9 hPa | 0 mm | - | - | - |
| 1778063184 | 6.11° C | 73% | 1014.9 hPa | 0 mm | - | - | - |
| 1778062881 | 6.11° C | 74% | 1015.2 hPa | 0 mm | - | - | - |
| 1778061973 | 6.67° C | 72% | 1014.9 hPa | 0 mm | - | - | - |
| 1778060763 | 6.67° C | 69% | 1014.5 hPa | 0 mm | - | - | - |
| 1778060159 | 7.78° C | 66% | 1014.6 hPa | 0 mm | - | - | - |
| 1778059250 | 8.89° C | 60% | 1014.7 hPa | 0 mm | - | - | - |
| 1778057736 | 10° C | 57% | 1014.6 hPa | 0 mm | - | - | - |
| 1778057130 | 10° C | 56% | 1014.6 hPa | 0 mm | - | - | - |
| 1778056523 | 10° C | 55% | 1014.7 hPa | 0 mm | - | - | - |
| 1778055917 | 10° C | 57% | 1014.7 hPa | 0 mm | - | - | - |
| 1778055613 | 10° C | 58% | 1014.6 hPa | 0 mm | - | - | - |
| 1778055311 | 10° C | 59% | 1014.8 hPa | 0 mm | - | - | - |
* Rain latest hour (hover to see other rain measurements)
** Current wind speed in m/s (hover to see current wind gust speed)